<?xml version='1.0' encoding='UTF-8'?>
<gpx version="1.1" creator="https://www.komoot.de" xmlns="http://www.topografix.com/GPX/1/1" xmlns:xsi="http://www.w3.org/2001/XMLSchema-instance" xsi:schemaLocation="http://www.topografix.com/GPX/1/1 http://www.topografix.com/GPX/1/1/gpx.xsd">
  <metadata>
    <name>Traumschleife Layensteig Strimmiger Berg</name>
    <author>
      <link href="https://www.komoot.de">
        <text>komoot</text>
        <type>text/html</type>
      </link>
    </author>
  </metadata>
  <trk>
    <name>Traumschleife Layensteig Strimmiger Berg</name>
    <trkseg>
      <trkpt lat="50.086789" lon="7.281562">
        <ele>376.306540</ele>
        <time>2025-05-03T18:40:37.349Z</time>
      </trkpt>
      <trkpt lat="50.086852" lon="7.281570">
        <ele>376.306540</ele>
        <time>2025-05-03T18:40:44.220Z</time>
      </trkpt>
      <trkpt lat="50.086826" lon="7.281211">
        <ele>376.306540</ele>
        <time>2025-05-03T18:41:09.909Z</time>
      </trkpt>
      <trkpt lat="50.086154" lon="7.281352">
        <ele>376.825401</ele>
        <time>2025-05-03T18:42:27.503Z</time>
      </trkpt>
      <trkpt lat="50.086099" lon="7.281366">
        <ele>377.217442</ele>
        <time>2025-05-03T18:42:34.161Z</time>
      </trkpt>
      <trkpt lat="50.085394" lon="7.281540">
        <ele>382.238790</ele>
        <time>2025-05-03T18:44:02.171Z</time>
      </trkpt>
      <trkpt lat="50.084284" lon="7.281771">
        <ele>389.987502</ele>
        <time>2025-05-03T18:46:25.045Z</time>
      </trkpt>
      <trkpt lat="50.083686" lon="7.282080">
        <ele>393.924483</ele>
        <time>2025-05-03T18:47:44.794Z</time>
      </trkpt>
      <trkpt lat="50.083613" lon="7.282155">
        <ele>394.470874</ele>
        <time>2025-05-03T18:47:55.568Z</time>
      </trkpt>
      <trkpt lat="50.083564" lon="7.282184">
        <ele>394.798414</ele>
        <time>2025-05-03T18:48:02.059Z</time>
      </trkpt>
      <trkpt lat="50.083359" lon="7.282305">
        <ele>396.168271</ele>
        <time>2025-05-03T18:48:28.850Z</time>
      </trkpt>
      <trkpt lat="50.082709" lon="7.282988">
        <ele>400.278472</ele>
        <time>2025-05-03T18:50:00.401Z</time>
      </trkpt>
      <trkpt lat="50.082402" lon="7.283502">
        <ele>400.534849</ele>
        <time>2025-05-03T18:50:48.663Z</time>
      </trkpt>
      <trkpt lat="50.082456" lon="7.283574">
        <ele>400.575285</ele>
        <time>2025-05-03T18:50:55.956Z</time>
      </trkpt>
      <trkpt lat="50.082512" lon="7.283628">
        <ele>400.612754</ele>
        <time>2025-05-03T18:51:02.719Z</time>
      </trkpt>
      <trkpt lat="50.082444" lon="7.283995">
        <ele>400.752222</ele>
        <time>2025-05-03T18:51:27.397Z</time>
      </trkpt>
      <trkpt lat="50.082294" lon="7.284417">
        <ele>400.928355</ele>
        <time>2025-05-03T18:51:58.745Z</time>
      </trkpt>
      <trkpt lat="50.082330" lon="7.285069">
        <ele>401.167284</ele>
        <time>2025-05-03T18:52:42.002Z</time>
      </trkpt>
      <trkpt lat="50.082348" lon="7.285514">
        <ele>400.794856</ele>
        <time>2025-05-03T18:53:11.901Z</time>
      </trkpt>
      <trkpt lat="50.082372" lon="7.286091">
        <ele>399.952206</ele>
        <time>2025-05-03T18:53:50.858Z</time>
      </trkpt>
      <trkpt lat="50.082423" lon="7.286444">
        <ele>399.424888</ele>
        <time>2025-05-03T18:54:15.118Z</time>
      </trkpt>
      <trkpt lat="50.082797" lon="7.288254">
        <ele>395.889005</ele>
        <time>2025-05-03T18:56:22.433Z</time>
      </trkpt>
      <trkpt lat="50.084060" lon="7.288529">
        <ele>388.418504</ele>
        <time>2025-05-03T18:58:43.402Z</time>
      </trkpt>
      <trkpt lat="50.085401" lon="7.290141">
        <ele>372.006558</ele>
        <time>2025-05-03T19:02:09.355Z</time>
      </trkpt>
      <trkpt lat="50.086013" lon="7.291016">
        <ele>364.183450</ele>
        <time>2025-05-03T19:03:49.730Z</time>
      </trkpt>
      <trkpt lat="50.086021" lon="7.291094">
        <ele>363.763336</ele>
        <time>2025-05-03T19:03:55.796Z</time>
      </trkpt>
      <trkpt lat="50.086172" lon="7.291554">
        <ele>361.015220</ele>
        <time>2025-05-03T19:04:35.011Z</time>
      </trkpt>
      <trkpt lat="50.087642" lon="7.293750">
        <ele>346.220732</ele>
        <time>2025-05-03T19:08:26.763Z</time>
      </trkpt>
      <trkpt lat="50.087712" lon="7.293623">
        <ele>345.546566</ele>
        <time>2025-05-03T19:08:38.822Z</time>
      </trkpt>
      <trkpt lat="50.087664" lon="7.293307">
        <ele>344.238982</ele>
        <time>2025-05-03T19:09:02.015Z</time>
      </trkpt>
      <trkpt lat="50.087734" lon="7.293293">
        <ele>343.796076</ele>
        <time>2025-05-03T19:09:09.952Z</time>
      </trkpt>
      <trkpt lat="50.088134" lon="7.293972">
        <ele>340.136334</ele>
        <time>2025-05-03T19:10:15.350Z</time>
      </trkpt>
      <trkpt lat="50.088282" lon="7.294310">
        <ele>338.552307</ele>
        <time>2025-05-03T19:10:44.680Z</time>
      </trkpt>
      <trkpt lat="50.088711" lon="7.295078">
        <ele>334.610623</ele>
        <time>2025-05-03T19:11:57.626Z</time>
      </trkpt>
      <trkpt lat="50.088864" lon="7.295271">
        <ele>333.423104</ele>
        <time>2025-05-03T19:12:19.782Z</time>
      </trkpt>
      <trkpt lat="50.089023" lon="7.295338">
        <ele>332.429387</ele>
        <time>2025-05-03T19:12:38.480Z</time>
      </trkpt>
      <trkpt lat="50.089479" lon="7.295723">
        <ele>329.063612</ele>
        <time>2025-05-03T19:13:37.479Z</time>
      </trkpt>
      <trkpt lat="50.089543" lon="7.295727">
        <ele>328.605455</ele>
        <time>2025-05-03T19:13:44.816Z</time>
      </trkpt>
      <trkpt lat="50.089580" lon="7.295695">
        <ele>328.302782</ele>
        <time>2025-05-03T19:13:49.733Z</time>
      </trkpt>
      <trkpt lat="50.089602" lon="7.295666">
        <ele>328.096684</ele>
        <time>2025-05-03T19:13:52.991Z</time>
      </trkpt>
      <trkpt lat="50.089618" lon="7.295612">
        <ele>327.823713</ele>
        <time>2025-05-03T19:13:57.377Z</time>
      </trkpt>
      <trkpt lat="50.089762" lon="7.295575">
        <ele>326.779785</ele>
        <time>2025-05-03T19:14:14.139Z</time>
      </trkpt>
      <trkpt lat="50.090165" lon="7.296095">
        <ele>323.037525</ele>
        <time>2025-05-03T19:15:13.417Z</time>
      </trkpt>
      <trkpt lat="50.090251" lon="7.296460">
        <ele>321.253083</ele>
        <time>2025-05-03T19:15:41.820Z</time>
      </trkpt>
      <trkpt lat="50.090247" lon="7.296791">
        <ele>319.733789</ele>
        <time>2025-05-03T19:16:06.171Z</time>
      </trkpt>
      <trkpt lat="50.090380" lon="7.297307">
        <ele>316.945054</ele>
        <time>2025-05-03T19:16:47.358Z</time>
      </trkpt>
      <trkpt lat="50.090409" lon="7.297538">
        <ele>315.382001</ele>
        <time>2025-05-03T19:17:05.004Z</time>
      </trkpt>
      <trkpt lat="50.090486" lon="7.297701">
        <ele>314.037841</ele>
        <time>2025-05-03T19:17:20.207Z</time>
      </trkpt>
      <trkpt lat="50.090604" lon="7.298206">
        <ele>310.468901</ele>
        <time>2025-05-03T19:18:00.988Z</time>
      </trkpt>
      <trkpt lat="50.090623" lon="7.298237">
        <ele>310.184208</ele>
        <time>2025-05-03T19:18:04.336Z</time>
      </trkpt>
      <trkpt lat="50.090678" lon="7.298221">
        <ele>309.605111</ele>
        <time>2025-05-03T19:18:10.935Z</time>
      </trkpt>
      <trkpt lat="50.090721" lon="7.298157">
        <ele>308.989726</ele>
        <time>2025-05-03T19:18:18.064Z</time>
      </trkpt>
      <trkpt lat="50.090761" lon="7.298196">
        <ele>308.501386</ele>
        <time>2025-05-03T19:18:23.768Z</time>
      </trkpt>
      <trkpt lat="50.090815" lon="7.298739">
        <ele>304.852548</ele>
        <time>2025-05-03T19:19:06.472Z</time>
      </trkpt>
      <trkpt lat="50.091192" lon="7.299852">
        <ele>296.259814</ele>
        <time>2025-05-03T19:20:46.813Z</time>
      </trkpt>
      <trkpt lat="50.091309" lon="7.300136">
        <ele>293.815965</ele>
        <time>2025-05-03T19:21:14.055Z</time>
      </trkpt>
      <trkpt lat="50.091408" lon="7.300597">
        <ele>290.295923</ele>
        <time>2025-05-03T19:21:53.227Z</time>
      </trkpt>
      <trkpt lat="50.091371" lon="7.300851">
        <ele>288.409952</ele>
        <time>2025-05-03T19:22:14.169Z</time>
      </trkpt>
      <trkpt lat="50.091439" lon="7.301287">
        <ele>285.161025</ele>
        <time>2025-05-03T19:22:49.931Z</time>
      </trkpt>
      <trkpt lat="50.091809" lon="7.302364">
        <ele>278.318783</ele>
        <time>2025-05-03T19:24:23.050Z</time>
      </trkpt>
      <trkpt lat="50.091910" lon="7.302462">
        <ele>278.060836</ele>
        <time>2025-05-03T19:24:36.192Z</time>
      </trkpt>
      <trkpt lat="50.092029" lon="7.302709">
        <ele>277.631167</ele>
        <time>2025-05-03T19:24:57.692Z</time>
      </trkpt>
      <trkpt lat="50.092273" lon="7.302721">
        <ele>277.101872</ele>
        <time>2025-05-03T19:25:23.015Z</time>
      </trkpt>
      <trkpt lat="50.092527" lon="7.302664">
        <ele>276.545481</ele>
        <time>2025-05-03T19:25:48.810Z</time>
      </trkpt>
      <trkpt lat="50.092629" lon="7.302695">
        <ele>276.320163</ele>
        <time>2025-05-03T19:25:59.196Z</time>
      </trkpt>
      <trkpt lat="50.092748" lon="7.302806">
        <ele>276.019483</ele>
        <time>2025-05-03T19:26:13.391Z</time>
      </trkpt>
      <trkpt lat="50.092818" lon="7.302823">
        <ele>275.865880</ele>
        <time>2025-05-03T19:26:20.960Z</time>
      </trkpt>
      <trkpt lat="50.092913" lon="7.302752">
        <ele>275.637452</ele>
        <time>2025-05-03T19:26:32.012Z</time>
      </trkpt>
      <trkpt lat="50.093058" lon="7.302414">
        <ele>275.071876</ele>
        <time>2025-05-03T19:27:00.190Z</time>
      </trkpt>
      <trkpt lat="50.093119" lon="7.302332">
        <ele>274.897229</ele>
        <time>2025-05-03T19:27:08.928Z</time>
      </trkpt>
      <trkpt lat="50.093185" lon="7.302376">
        <ele>274.721875</ele>
        <time>2025-05-03T19:27:16.597Z</time>
      </trkpt>
      <trkpt lat="50.093248" lon="7.302467">
        <ele>274.511793</ele>
        <time>2025-05-03T19:27:25.855Z</time>
      </trkpt>
      <trkpt lat="50.093271" lon="7.302966">
        <ele>273.726768</ele>
        <time>2025-05-03T19:27:58.855Z</time>
      </trkpt>
      <trkpt lat="50.093282" lon="7.303045">
        <ele>273.599919</ele>
        <time>2025-05-03T19:28:04.138Z</time>
      </trkpt>
      <trkpt lat="50.093366" lon="7.303123">
        <ele>273.360769</ele>
        <time>2025-05-03T19:28:14.072Z</time>
      </trkpt>
      <trkpt lat="50.093629" lon="7.303501">
        <ele>272.485775</ele>
        <time>2025-05-03T19:28:51.690Z</time>
      </trkpt>
      <trkpt lat="50.093806" lon="7.303865">
        <ele>271.769077</ele>
        <time>2025-05-03T19:29:23.525Z</time>
      </trkpt>
      <trkpt lat="50.094050" lon="7.304710">
        <ele>270.070188</ele>
        <time>2025-05-03T19:30:29.408Z</time>
      </trkpt>
      <trkpt lat="50.094090" lon="7.304848">
        <ele>269.511364</ele>
        <time>2025-05-03T19:30:40.226Z</time>
      </trkpt>
      <trkpt lat="50.094183" lon="7.305974">
        <ele>265.321840</ele>
        <time>2025-05-03T19:32:02.429Z</time>
      </trkpt>
      <trkpt lat="50.094239" lon="7.306161">
        <ele>264.560281</ele>
        <time>2025-05-03T19:32:17.292Z</time>
      </trkpt>
      <trkpt lat="50.094297" lon="7.306269">
        <ele>264.040521</ele>
        <time>2025-05-03T19:32:27.460Z</time>
      </trkpt>
      <trkpt lat="50.094442" lon="7.306448">
        <ele>262.976555</ele>
        <time>2025-05-03T19:32:48.042Z</time>
      </trkpt>
      <trkpt lat="50.094573" lon="7.306666">
        <ele>261.874280</ele>
        <time>2025-05-03T19:33:09.435Z</time>
      </trkpt>
      <trkpt lat="50.095586" lon="7.307854">
        <ele>255.328260</ele>
        <time>2025-05-03T19:35:29.851Z</time>
      </trkpt>
      <trkpt lat="50.096110" lon="7.308379">
        <ele>252.225264</ele>
        <time>2025-05-03T19:36:38.159Z</time>
      </trkpt>
      <trkpt lat="50.096424" lon="7.308632">
        <ele>250.497390</ele>
        <time>2025-05-03T19:37:16.714Z</time>
      </trkpt>
      <trkpt lat="50.096806" lon="7.308849">
        <ele>248.563952</ele>
        <time>2025-05-03T19:38:00.884Z</time>
      </trkpt>
      <trkpt lat="50.097232" lon="7.308970">
        <ele>246.504779</ele>
        <time>2025-05-03T19:38:48.148Z</time>
      </trkpt>
      <trkpt lat="50.097300" lon="7.308940">
        <ele>246.168708</ele>
        <time>2025-05-03T19:38:55.902Z</time>
      </trkpt>
      <trkpt lat="50.097338" lon="7.308868">
        <ele>245.884284</ele>
        <time>2025-05-03T19:39:02.533Z</time>
      </trkpt>
      <trkpt lat="50.097390" lon="7.308872">
        <ele>245.636700</ele>
        <time>2025-05-03T19:39:08.158Z</time>
      </trkpt>
      <trkpt lat="50.097531" lon="7.309058">
        <ele>244.758328</ele>
        <time>2025-05-03T19:39:28.547Z</time>
      </trkpt>
      <trkpt lat="50.097654" lon="7.309129">
        <ele>244.134596</ele>
        <time>2025-05-03T19:39:43.009Z</time>
      </trkpt>
      <trkpt lat="50.097756" lon="7.309188">
        <ele>243.617226</ele>
        <time>2025-05-03T19:39:55.000Z</time>
      </trkpt>
      <trkpt lat="50.098476" lon="7.309788">
        <ele>238.875059</ele>
        <time>2025-05-03T19:41:25.798Z</time>
      </trkpt>
      <trkpt lat="50.098821" lon="7.310141">
        <ele>236.331161</ele>
        <time>2025-05-03T19:42:12.125Z</time>
      </trkpt>
      <trkpt lat="50.099201" lon="7.310315">
        <ele>233.889720</ele>
        <time>2025-05-03T19:42:56.920Z</time>
      </trkpt>
      <trkpt lat="50.099310" lon="7.310366">
        <ele>233.188186</ele>
        <time>2025-05-03T19:43:09.763Z</time>
      </trkpt>
      <trkpt lat="50.099848" lon="7.310246">
        <ele>229.142281</ele>
        <time>2025-05-03T19:44:11.795Z</time>
      </trkpt>
      <trkpt lat="50.100539" lon="7.310572">
        <ele>222.882339</ele>
        <time>2025-05-03T19:45:35.842Z</time>
      </trkpt>
      <trkpt lat="50.101429" lon="7.311333">
        <ele>214.742792</ele>
        <time>2025-05-03T19:47:38.031Z</time>
      </trkpt>
      <trkpt lat="50.102113" lon="7.312035">
        <ele>210.152998</ele>
        <time>2025-05-03T19:49:12.096Z</time>
      </trkpt>
      <trkpt lat="50.102290" lon="7.311839">
        <ele>208.936179</ele>
        <time>2025-05-03T19:49:35.828Z</time>
      </trkpt>
      <trkpt lat="50.102442" lon="7.311721">
        <ele>207.984479</ele>
        <time>2025-05-03T19:49:54.192Z</time>
      </trkpt>
      <trkpt lat="50.102777" lon="7.311568">
        <ele>206.027971</ele>
        <time>2025-05-03T19:50:30.543Z</time>
      </trkpt>
      <trkpt lat="50.102870" lon="7.311445">
        <ele>205.870572</ele>
        <time>2025-05-03T19:50:42.713Z</time>
      </trkpt>
      <trkpt lat="50.102981" lon="7.311174">
        <ele>205.867415</ele>
        <time>2025-05-03T19:51:04.089Z</time>
      </trkpt>
      <trkpt lat="50.103016" lon="7.311037">
        <ele>205.865967</ele>
        <time>2025-05-03T19:51:14.432Z</time>
      </trkpt>
      <trkpt lat="50.103075" lon="7.310806">
        <ele>205.863525</ele>
        <time>2025-05-03T19:51:31.707Z</time>
      </trkpt>
      <trkpt lat="50.103199" lon="7.310173">
        <ele>205.857026</ele>
        <time>2025-05-03T19:52:16.969Z</time>
      </trkpt>
      <trkpt lat="50.103271" lon="7.309550">
        <ele>205.850809</ele>
        <time>2025-05-03T19:52:58.654Z</time>
      </trkpt>
      <trkpt lat="50.103432" lon="7.308947">
        <ele>205.829012</ele>
        <time>2025-05-03T19:53:41.347Z</time>
      </trkpt>
      <trkpt lat="50.103662" lon="7.308292">
        <ele>204.428500</ele>
        <time>2025-05-03T19:54:32.428Z</time>
      </trkpt>
      <trkpt lat="50.103835" lon="7.307998">
        <ele>203.680207</ele>
        <time>2025-05-03T19:55:00.286Z</time>
      </trkpt>
      <trkpt lat="50.104030" lon="7.307734">
        <ele>202.925037</ele>
        <time>2025-05-03T19:55:28.793Z</time>
      </trkpt>
      <trkpt lat="50.104417" lon="7.307551">
        <ele>201.742512</ele>
        <time>2025-05-03T19:56:12.714Z</time>
      </trkpt>
      <trkpt lat="50.104646" lon="7.307500">
        <ele>201.066099</ele>
        <time>2025-05-03T19:56:37.090Z</time>
      </trkpt>
      <trkpt lat="50.104955" lon="7.307572">
        <ele>200.699158</ele>
        <time>2025-05-03T19:57:09.294Z</time>
      </trkpt>
      <trkpt lat="50.105122" lon="7.307477">
        <ele>200.836239</ele>
        <time>2025-05-03T19:57:27.239Z</time>
      </trkpt>
      <trkpt lat="50.105531" lon="7.307149">
        <ele>201.190904</ele>
        <time>2025-05-03T19:58:14.807Z</time>
      </trkpt>
      <trkpt lat="50.105870" lon="7.307098">
        <ele>201.453530</ele>
        <time>2025-05-03T19:58:51.366Z</time>
      </trkpt>
      <trkpt lat="50.107061" lon="7.307374">
        <ele>202.363263</ele>
        <time>2025-05-03T20:00:59.181Z</time>
      </trkpt>
      <trkpt lat="50.107471" lon="7.307320">
        <ele>202.666028</ele>
        <time>2025-05-03T20:01:41.527Z</time>
      </trkpt>
      <trkpt lat="50.107920" lon="7.307022">
        <ele>203.025100</ele>
        <time>2025-05-03T20:02:31.136Z</time>
      </trkpt>
      <trkpt lat="50.108320" lon="7.306618">
        <ele>203.072100</ele>
        <time>2025-05-03T20:03:18.871Z</time>
      </trkpt>
      <trkpt lat="50.108618" lon="7.306172">
        <ele>202.225543</ele>
        <time>2025-05-03T20:04:00.661Z</time>
      </trkpt>
      <trkpt lat="50.109022" lon="7.305792">
        <ele>201.258576</ele>
        <time>2025-05-03T20:04:49.402Z</time>
      </trkpt>
      <trkpt lat="50.109331" lon="7.305316">
        <ele>200.368364</ele>
        <time>2025-05-03T20:05:35.698Z</time>
      </trkpt>
      <trkpt lat="50.109522" lon="7.304946">
        <ele>199.744076</ele>
        <time>2025-05-03T20:06:08.659Z</time>
      </trkpt>
      <trkpt lat="50.109901" lon="7.303873">
        <ele>196.703926</ele>
        <time>2025-05-03T20:07:33.492Z</time>
      </trkpt>
      <trkpt lat="50.110023" lon="7.303690">
        <ele>196.020668</ele>
        <time>2025-05-03T20:07:51.845Z</time>
      </trkpt>
      <trkpt lat="50.110158" lon="7.303547">
        <ele>195.361958</ele>
        <time>2025-05-03T20:08:09.744Z</time>
      </trkpt>
      <trkpt lat="50.110338" lon="7.303383">
        <ele>194.520526</ele>
        <time>2025-05-03T20:08:32.696Z</time>
      </trkpt>
      <trkpt lat="50.110535" lon="7.303269">
        <ele>193.672421</ele>
        <time>2025-05-03T20:08:55.682Z</time>
      </trkpt>
      <trkpt lat="50.110649" lon="7.303255">
        <ele>193.210877</ele>
        <time>2025-05-03T20:09:08.156Z</time>
      </trkpt>
      <trkpt lat="50.110795" lon="7.303296">
        <ele>192.612123</ele>
        <time>2025-05-03T20:09:24.261Z</time>
      </trkpt>
      <trkpt lat="50.110903" lon="7.303411">
        <ele>192.175507</ele>
        <time>2025-05-03T20:09:38.369Z</time>
      </trkpt>
      <trkpt lat="50.110998" lon="7.303809">
        <ele>191.454023</ele>
        <time>2025-05-03T20:10:07.333Z</time>
      </trkpt>
      <trkpt lat="50.111017" lon="7.304072">
        <ele>191.004384</ele>
        <time>2025-05-03T20:10:25.279Z</time>
      </trkpt>
      <trkpt lat="50.110966" lon="7.304323">
        <ele>190.557066</ele>
        <time>2025-05-03T20:10:43.135Z</time>
      </trkpt>
      <trkpt lat="50.110830" lon="7.304543">
        <ele>190.037929</ele>
        <time>2025-05-03T20:11:03.847Z</time>
      </trkpt>
      <trkpt lat="50.110760" lon="7.304722">
        <ele>189.681743</ele>
        <time>2025-05-03T20:11:17.986Z</time>
      </trkpt>
      <trkpt lat="50.110736" lon="7.304910">
        <ele>189.356080</ele>
        <time>2025-05-03T20:11:30.793Z</time>
      </trkpt>
      <trkpt lat="50.110748" lon="7.305072">
        <ele>189.079025</ele>
        <time>2025-05-03T20:11:41.703Z</time>
      </trkpt>
      <trkpt lat="50.110807" lon="7.305271">
        <ele>188.706559</ele>
        <time>2025-05-03T20:11:56.340Z</time>
      </trkpt>
      <trkpt lat="50.110871" lon="7.305411">
        <ele>188.414468</ele>
        <time>2025-05-03T20:12:07.837Z</time>
      </trkpt>
      <trkpt lat="50.110965" lon="7.305523">
        <ele>188.101072</ele>
        <time>2025-05-03T20:12:20.031Z</time>
      </trkpt>
      <trkpt lat="50.111349" lon="7.305739">
        <ele>186.916430</ele>
        <time>2025-05-03T20:13:02.442Z</time>
      </trkpt>
      <trkpt lat="50.111708" lon="7.305848">
        <ele>185.770616</ele>
        <time>2025-05-03T20:13:40.769Z</time>
      </trkpt>
      <trkpt lat="50.112674" lon="7.305681">
        <ele>182.725743</ele>
        <time>2025-05-03T20:15:26.072Z</time>
      </trkpt>
      <trkpt lat="50.113113" lon="7.305802">
        <ele>182.174150</ele>
        <time>2025-05-03T20:16:14.122Z</time>
      </trkpt>
      <trkpt lat="50.113264" lon="7.305777">
        <ele>182.345905</ele>
        <time>2025-05-03T20:16:30.095Z</time>
      </trkpt>
      <trkpt lat="50.113357" lon="7.305664">
        <ele>182.479259</ele>
        <time>2025-05-03T20:16:42.304Z</time>
      </trkpt>
      <trkpt lat="50.113398" lon="7.305518">
        <ele>182.594868</ele>
        <time>2025-05-03T20:16:52.670Z</time>
      </trkpt>
      <trkpt lat="50.113368" lon="7.305224">
        <ele>182.810800</ele>
        <time>2025-05-03T20:17:11.960Z</time>
      </trkpt>
      <trkpt lat="50.113306" lon="7.305059">
        <ele>182.949513</ele>
        <time>2025-05-03T20:17:24.635Z</time>
      </trkpt>
      <trkpt lat="50.113147" lon="7.304788">
        <ele>183.215939</ele>
        <time>2025-05-03T20:17:49.759Z</time>
      </trkpt>
      <trkpt lat="50.112848" lon="7.304452">
        <ele>183.632802</ele>
        <time>2025-05-03T20:18:30.710Z</time>
      </trkpt>
      <trkpt lat="50.112580" lon="7.303970">
        <ele>184.565876</ele>
        <time>2025-05-03T20:19:18.476Z</time>
      </trkpt>
      <trkpt lat="50.112060" lon="7.302282">
        <ele>191.674004</ele>
        <time>2025-05-03T20:21:45.596Z</time>
      </trkpt>
      <trkpt lat="50.111760" lon="7.301490">
        <ele>194.542896</ele>
        <time>2025-05-03T20:22:58.377Z</time>
      </trkpt>
      <trkpt lat="50.111646" lon="7.301115">
        <ele>194.284903</ele>
        <time>2025-05-03T20:23:29.562Z</time>
      </trkpt>
      <trkpt lat="50.111544" lon="7.300944">
        <ele>194.139720</ele>
        <time>2025-05-03T20:23:46.135Z</time>
      </trkpt>
      <trkpt lat="50.111508" lon="7.300761">
        <ele>194.020722</ele>
        <time>2025-05-03T20:23:59.207Z</time>
      </trkpt>
      <trkpt lat="50.111513" lon="7.300617">
        <ele>193.931070</ele>
        <time>2025-05-03T20:24:08.768Z</time>
      </trkpt>
      <trkpt lat="50.111553" lon="7.300460">
        <ele>193.826047</ele>
        <time>2025-05-03T20:24:19.613Z</time>
      </trkpt>
      <trkpt lat="50.111869" lon="7.299906">
        <ele>193.365120</ele>
        <time>2025-05-03T20:25:09.879Z</time>
      </trkpt>
      <trkpt lat="50.111967" lon="7.299779">
        <ele>193.241594</ele>
        <time>2025-05-03T20:25:23.921Z</time>
      </trkpt>
      <trkpt lat="50.112094" lon="7.299680">
        <ele>193.103954</ele>
        <time>2025-05-03T20:25:39.993Z</time>
      </trkpt>
      <trkpt lat="50.112343" lon="7.299556">
        <ele>192.705806</ele>
        <time>2025-05-03T20:26:10.298Z</time>
      </trkpt>
      <trkpt lat="50.112686" lon="7.299177">
        <ele>190.675299</ele>
        <time>2025-05-03T20:26:59.205Z</time>
      </trkpt>
      <trkpt lat="50.113095" lon="7.298586">
        <ele>187.982001</ele>
        <time>2025-05-03T20:28:02.443Z</time>
      </trkpt>
      <trkpt lat="50.113666" lon="7.297482">
        <ele>183.790081</ele>
        <time>2025-05-03T20:29:37.552Z</time>
      </trkpt>
      <trkpt lat="50.114282" lon="7.296475">
        <ele>180.900907</ele>
        <time>2025-05-03T20:31:09.908Z</time>
      </trkpt>
      <trkpt lat="50.114485" lon="7.296301">
        <ele>180.150987</ele>
        <time>2025-05-03T20:31:34.947Z</time>
      </trkpt>
      <trkpt lat="50.114756" lon="7.296196">
        <ele>179.246983</ele>
        <time>2025-05-03T20:32:05.798Z</time>
      </trkpt>
      <trkpt lat="50.114947" lon="7.296201">
        <ele>178.628555</ele>
        <time>2025-05-03T20:32:26.994Z</time>
      </trkpt>
      <trkpt lat="50.115583" lon="7.296493">
        <ele>175.227321</ele>
        <time>2025-05-03T20:33:41.402Z</time>
      </trkpt>
      <trkpt lat="50.115769" lon="7.296458">
        <ele>174.218962</ele>
        <time>2025-05-03T20:34:02.386Z</time>
      </trkpt>
      <trkpt lat="50.116175" lon="7.296119">
        <ele>171.740268</ele>
        <time>2025-05-03T20:34:53.904Z</time>
      </trkpt>
      <trkpt lat="50.116600" lon="7.295586">
        <ele>168.804919</ele>
        <time>2025-05-03T20:35:53.932Z</time>
      </trkpt>
      <trkpt lat="50.116825" lon="7.295547">
        <ele>168.191810</ele>
        <time>2025-05-03T20:36:18.504Z</time>
      </trkpt>
      <trkpt lat="50.117626" lon="7.295409">
        <ele>166.221810</ele>
        <time>2025-05-03T20:37:45.449Z</time>
      </trkpt>
      <trkpt lat="50.118392" lon="7.294973">
        <ele>164.313684</ele>
        <time>2025-05-03T20:39:08.351Z</time>
      </trkpt>
      <trkpt lat="50.118397" lon="7.294493">
        <ele>164.474691</ele>
        <time>2025-05-03T20:39:39.923Z</time>
      </trkpt>
      <trkpt lat="50.118316" lon="7.294169">
        <ele>164.591323</ele>
        <time>2025-05-03T20:40:03.227Z</time>
      </trkpt>
      <trkpt lat="50.118318" lon="7.293956">
        <ele>164.662768</ele>
        <time>2025-05-03T20:40:17.636Z</time>
      </trkpt>
      <trkpt lat="50.118354" lon="7.293769">
        <ele>164.728251</ele>
        <time>2025-05-03T20:40:31.012Z</time>
      </trkpt>
      <trkpt lat="50.118637" lon="7.292778">
        <ele>165.092090</ele>
        <time>2025-05-03T20:41:45.208Z</time>
      </trkpt>
      <trkpt lat="50.118354" lon="7.293769">
        <ele>165.005793</ele>
        <time>2025-05-03T20:42:57.498Z</time>
      </trkpt>
      <trkpt lat="50.118318" lon="7.293956">
        <ele>164.935110</ele>
        <time>2025-05-03T20:43:10.527Z</time>
      </trkpt>
      <trkpt lat="50.118316" lon="7.294169">
        <ele>164.857991</ele>
        <time>2025-05-03T20:43:24.618Z</time>
      </trkpt>
      <trkpt lat="50.118397" lon="7.294493">
        <ele>164.732096</ele>
        <time>2025-05-03T20:43:47.513Z</time>
      </trkpt>
      <trkpt lat="50.118392" lon="7.294973">
        <ele>164.558304</ele>
        <time>2025-05-03T20:44:18.782Z</time>
      </trkpt>
      <trkpt lat="50.117626" lon="7.295409">
        <ele>164.240435</ele>
        <time>2025-05-03T20:45:41.547Z</time>
      </trkpt>
      <trkpt lat="50.116825" lon="7.295547">
        <ele>164.299940</ele>
        <time>2025-05-03T20:47:04.867Z</time>
      </trkpt>
      <trkpt lat="50.117626" lon="7.295409">
        <ele>164.365375</ele>
        <time>2025-05-03T20:48:27.077Z</time>
      </trkpt>
      <trkpt lat="50.118392" lon="7.294973">
        <ele>164.558694</ele>
        <time>2025-05-03T20:49:49.358Z</time>
      </trkpt>
      <trkpt lat="50.118397" lon="7.294493">
        <ele>164.631672</ele>
        <time>2025-05-03T20:50:20.931Z</time>
      </trkpt>
      <trkpt lat="50.118316" lon="7.294169">
        <ele>164.684536</ele>
        <time>2025-05-03T20:50:44.130Z</time>
      </trkpt>
      <trkpt lat="50.118318" lon="7.293956">
        <ele>164.716919</ele>
        <time>2025-05-03T20:50:58.325Z</time>
      </trkpt>
      <trkpt lat="50.118354" lon="7.293769">
        <ele>164.746599</ele>
        <time>2025-05-03T20:51:11.407Z</time>
      </trkpt>
      <trkpt lat="50.118637" lon="7.292778">
        <ele>165.329513</ele>
        <time>2025-05-03T20:52:23.323Z</time>
      </trkpt>
      <trkpt lat="50.119298" lon="7.290463">
        <ele>168.208577</ele>
        <time>2025-05-03T20:55:10.647Z</time>
      </trkpt>
      <trkpt lat="50.119200" lon="7.290101">
        <ele>169.312254</ele>
        <time>2025-05-03T20:55:39.553Z</time>
      </trkpt>
      <trkpt lat="50.119137" lon="7.290061">
        <ele>169.610219</ele>
        <time>2025-05-03T20:55:47.581Z</time>
      </trkpt>
      <trkpt lat="50.119062" lon="7.290104">
        <ele>169.960253</ele>
        <time>2025-05-03T20:55:56.936Z</time>
      </trkpt>
      <trkpt lat="50.118833" lon="7.290458">
        <ele>171.372670</ele>
        <time>2025-05-03T20:56:34.503Z</time>
      </trkpt>
      <trkpt lat="50.118782" lon="7.290485">
        <ele>171.608597</ele>
        <time>2025-05-03T20:56:40.977Z</time>
      </trkpt>
      <trkpt lat="50.118755" lon="7.290410">
        <ele>171.850186</ele>
        <time>2025-05-03T20:56:47.471Z</time>
      </trkpt>
      <trkpt lat="50.118724" lon="7.290299">
        <ele>172.190251</ele>
        <time>2025-05-03T20:56:56.566Z</time>
      </trkpt>
      <trkpt lat="50.118679" lon="7.289892">
        <ele>173.350295</ele>
        <time>2025-05-03T20:57:29.187Z</time>
      </trkpt>
      <trkpt lat="50.118567" lon="7.289679">
        <ele>174.124008</ele>
        <time>2025-05-03T20:57:51.419Z</time>
      </trkpt>
      <trkpt lat="50.118425" lon="7.289568">
        <ele>174.775763</ele>
        <time>2025-05-03T20:58:11.470Z</time>
      </trkpt>
      <trkpt lat="50.118211" lon="7.289281">
        <ele>175.853053</ele>
        <time>2025-05-03T20:58:46.046Z</time>
      </trkpt>
      <trkpt lat="50.118108" lon="7.289103">
        <ele>176.439857</ele>
        <time>2025-05-03T20:59:03.755Z</time>
      </trkpt>
      <trkpt lat="50.117923" lon="7.288875">
        <ele>177.339848</ele>
        <time>2025-05-03T20:59:30.586Z</time>
      </trkpt>
      <trkpt lat="50.117460" lon="7.288403">
        <ele>179.451129</ele>
        <time>2025-05-03T21:00:33.646Z</time>
      </trkpt>
      <trkpt lat="50.117062" lon="7.287934">
        <ele>181.328831</ele>
        <time>2025-05-03T21:01:28.845Z</time>
      </trkpt>
      <trkpt lat="50.116753" lon="7.287506">
        <ele>179.560350</ele>
        <time>2025-05-03T21:02:10.774Z</time>
      </trkpt>
      <trkpt lat="50.116445" lon="7.286953">
        <ele>177.550503</ele>
        <time>2025-05-03T21:03:02.440Z</time>
      </trkpt>
      <trkpt lat="50.116214" lon="7.286443">
        <ele>175.837201</ele>
        <time>2025-05-03T21:03:47.395Z</time>
      </trkpt>
      <trkpt lat="50.115884" lon="7.285816">
        <ele>173.609367</ele>
        <time>2025-05-03T21:04:47.169Z</time>
      </trkpt>
      <trkpt lat="50.115568" lon="7.285479">
        <ele>171.873104</ele>
        <time>2025-05-03T21:05:31.367Z</time>
      </trkpt>
      <trkpt lat="50.115188" lon="7.285157">
        <ele>169.911656</ele>
        <time>2025-05-03T21:06:20.346Z</time>
      </trkpt>
      <trkpt lat="50.114954" lon="7.285092">
        <ele>168.833665</ele>
        <time>2025-05-03T21:06:46.631Z</time>
      </trkpt>
      <trkpt lat="50.114691" lon="7.284900">
        <ele>167.516618</ele>
        <time>2025-05-03T21:07:17.875Z</time>
      </trkpt>
      <trkpt lat="50.114412" lon="7.284641">
        <ele>166.044005</ele>
        <time>2025-05-03T21:07:51.787Z</time>
      </trkpt>
      <trkpt lat="50.114054" lon="7.284396">
        <ele>166.025498</ele>
        <time>2025-05-03T21:08:31.042Z</time>
      </trkpt>
      <trkpt lat="50.113677" lon="7.284364">
        <ele>166.780642</ele>
        <time>2025-05-03T21:09:11.025Z</time>
      </trkpt>
      <trkpt lat="50.113223" lon="7.284519">
        <ele>167.710184</ele>
        <time>2025-05-03T21:10:02.708Z</time>
      </trkpt>
      <trkpt lat="50.112946" lon="7.284746">
        <ele>168.336049</ele>
        <time>2025-05-03T21:10:38.187Z</time>
      </trkpt>
      <trkpt lat="50.112743" lon="7.284836">
        <ele>168.758155</ele>
        <time>2025-05-03T21:11:01.959Z</time>
      </trkpt>
      <trkpt lat="50.112509" lon="7.284881">
        <ele>169.154234</ele>
        <time>2025-05-03T21:11:28.285Z</time>
      </trkpt>
      <trkpt lat="50.111947" lon="7.284747">
        <ele>169.694349</ele>
        <time>2025-05-03T21:12:29.634Z</time>
      </trkpt>
      <trkpt lat="50.111907" lon="7.284724">
        <ele>169.734851</ele>
        <time>2025-05-03T21:12:34.125Z</time>
      </trkpt>
      <trkpt lat="50.111240" lon="7.284325">
        <ele>170.413540</ele>
        <time>2025-05-03T21:13:46.198Z</time>
      </trkpt>
      <trkpt lat="50.110830" lon="7.284186">
        <ele>170.797281</ele>
        <time>2025-05-03T21:14:28.853Z</time>
      </trkpt>
      <trkpt lat="50.110617" lon="7.284028">
        <ele>170.830605</ele>
        <time>2025-05-03T21:14:52.883Z</time>
      </trkpt>
      <trkpt lat="50.110417" lon="7.283734">
        <ele>170.869439</ele>
        <time>2025-05-03T21:15:20.628Z</time>
      </trkpt>
      <trkpt lat="50.109916" lon="7.282667">
        <ele>170.989258</ele>
        <time>2025-05-03T21:16:46.605Z</time>
      </trkpt>
      <trkpt lat="50.109233" lon="7.281489">
        <ele>171.819436</ele>
        <time>2025-05-03T21:18:30.973Z</time>
      </trkpt>
      <trkpt lat="50.109123" lon="7.281213">
        <ele>172.088449</ele>
        <time>2025-05-03T21:18:53.200Z</time>
      </trkpt>
      <trkpt lat="50.109044" lon="7.280838">
        <ele>172.415214</ele>
        <time>2025-05-03T21:19:19.796Z</time>
      </trkpt>
      <trkpt lat="50.108944" lon="7.280516">
        <ele>172.711392</ele>
        <time>2025-05-03T21:19:43.912Z</time>
      </trkpt>
      <trkpt lat="50.108774" lon="7.280591">
        <ele>172.939450</ele>
        <time>2025-05-03T21:20:02.500Z</time>
      </trkpt>
      <trkpt lat="50.108490" lon="7.280508">
        <ele>173.312432</ele>
        <time>2025-05-03T21:20:33.120Z</time>
      </trkpt>
      <trkpt lat="50.108314" lon="7.280433">
        <ele>173.437276</ele>
        <time>2025-05-03T21:20:52.575Z</time>
      </trkpt>
      <trkpt lat="50.108118" lon="7.280304">
        <ele>173.540556</ele>
        <time>2025-05-03T21:21:15.565Z</time>
      </trkpt>
      <trkpt lat="50.107578" lon="7.279792">
        <ele>173.847369</ele>
        <time>2025-05-03T21:22:21.361Z</time>
      </trkpt>
      <trkpt lat="50.107234" lon="7.279513">
        <ele>174.035610</ele>
        <time>2025-05-03T21:23:00.804Z</time>
      </trkpt>
      <trkpt lat="50.107137" lon="7.279470">
        <ele>174.084566</ele>
        <time>2025-05-03T21:23:11.027Z</time>
      </trkpt>
      <trkpt lat="50.107022" lon="7.279340">
        <ele>174.153523</ele>
        <time>2025-05-03T21:23:25.453Z</time>
      </trkpt>
      <trkpt lat="50.106779" lon="7.279221">
        <ele>174.359149</ele>
        <time>2025-05-03T21:23:51.272Z</time>
      </trkpt>
      <trkpt lat="50.106404" lon="7.278922">
        <ele>175.064947</ele>
        <time>2025-05-03T21:24:33.953Z</time>
      </trkpt>
      <trkpt lat="50.105978" lon="7.278715">
        <ele>175.812672</ele>
        <time>2025-05-03T21:25:19.112Z</time>
      </trkpt>
      <trkpt lat="50.105897" lon="7.278532">
        <ele>176.051644</ele>
        <time>2025-05-03T21:25:34.087Z</time>
      </trkpt>
      <trkpt lat="50.105874" lon="7.278423">
        <ele>176.174971</ele>
        <time>2025-05-03T21:25:41.956Z</time>
      </trkpt>
      <trkpt lat="50.104792" lon="7.278778">
        <ele>179.750847</ele>
        <time>2025-05-03T21:27:48.636Z</time>
      </trkpt>
      <trkpt lat="50.104431" lon="7.278957">
        <ele>181.806040</ele>
        <time>2025-05-03T21:28:35.250Z</time>
      </trkpt>
      <trkpt lat="50.104329" lon="7.278772">
        <ele>182.654949</ele>
        <time>2025-05-03T21:28:54.696Z</time>
      </trkpt>
      <trkpt lat="50.104368" lon="7.278652">
        <ele>183.123065</ele>
        <time>2025-05-03T21:29:05.542Z</time>
      </trkpt>
      <trkpt lat="50.104464" lon="7.278571">
        <ele>183.715270</ele>
        <time>2025-05-03T21:29:23.767Z</time>
      </trkpt>
      <trkpt lat="50.104427" lon="7.278460">
        <ele>184.150568</ele>
        <time>2025-05-03T21:29:37.171Z</time>
      </trkpt>
      <trkpt lat="50.104474" lon="7.278401">
        <ele>184.477935</ele>
        <time>2025-05-03T21:29:47.098Z</time>
      </trkpt>
      <trkpt lat="50.104372" lon="7.278307">
        <ele>185.120758</ele>
        <time>2025-05-03T21:30:06.617Z</time>
      </trkpt>
      <trkpt lat="50.104129" lon="7.277848">
        <ele>187.004590</ele>
        <time>2025-05-03T21:31:08.593Z</time>
      </trkpt>
      <trkpt lat="50.104017" lon="7.277455">
        <ele>186.907850</ele>
        <time>2025-05-03T21:31:50.899Z</time>
      </trkpt>
      <trkpt lat="50.103997" lon="7.277078">
        <ele>186.822754</ele>
        <time>2025-05-03T21:32:25.845Z</time>
      </trkpt>
      <trkpt lat="50.104046" lon="7.276910">
        <ele>186.781238</ele>
        <time>2025-05-03T21:32:41.899Z</time>
      </trkpt>
      <trkpt lat="50.104058" lon="7.276779">
        <ele>186.751471</ele>
        <time>2025-05-03T21:32:53.511Z</time>
      </trkpt>
      <trkpt lat="50.104013" lon="7.276475">
        <ele>186.681288</ele>
        <time>2025-05-03T21:33:21.337Z</time>
      </trkpt>
      <trkpt lat="50.103980" lon="7.276383">
        <ele>186.657576</ele>
        <time>2025-05-03T21:33:30.941Z</time>
      </trkpt>
      <trkpt lat="50.103963" lon="7.276357">
        <ele>186.649224</ele>
        <time>2025-05-03T21:33:33.477Z</time>
      </trkpt>
      <trkpt lat="50.103971" lon="7.276325">
        <ele>186.641498</ele>
        <time>2025-05-03T21:33:36.539Z</time>
      </trkpt>
      <trkpt lat="50.103942" lon="7.276281">
        <ele>186.627306</ele>
        <time>2025-05-03T21:33:42.286Z</time>
      </trkpt>
      <trkpt lat="50.103891" lon="7.276019">
        <ele>186.565714</ele>
        <time>2025-05-03T21:34:07.551Z</time>
      </trkpt>
      <trkpt lat="50.103822" lon="7.275971">
        <ele>186.539215</ele>
        <time>2025-05-03T21:34:18.516Z</time>
      </trkpt>
      <trkpt lat="50.103768" lon="7.275871">
        <ele>186.509809</ele>
        <time>2025-05-03T21:34:30.689Z</time>
      </trkpt>
      <trkpt lat="50.103495" lon="7.275575">
        <ele>186.393184</ele>
        <time>2025-05-03T21:35:19.226Z</time>
      </trkpt>
      <trkpt lat="50.103420" lon="7.275551">
        <ele>186.348982</ele>
        <time>2025-05-03T21:35:30.400Z</time>
      </trkpt>
      <trkpt lat="50.103067" lon="7.274967">
        <ele>186.001882</ele>
        <time>2025-05-03T21:36:25.765Z</time>
      </trkpt>
      <trkpt lat="50.102291" lon="7.274568">
        <ele>185.450847</ele>
        <time>2025-05-03T21:37:48.904Z</time>
      </trkpt>
      <trkpt lat="50.101994" lon="7.274344">
        <ele>185.228354</ele>
        <time>2025-05-03T21:38:23.991Z</time>
      </trkpt>
      <trkpt lat="50.101933" lon="7.274253">
        <ele>185.182229</ele>
        <time>2025-05-03T21:38:33.293Z</time>
      </trkpt>
      <trkpt lat="50.101818" lon="7.274207">
        <ele>186.232673</ele>
        <time>2025-05-03T21:38:46.546Z</time>
      </trkpt>
      <trkpt lat="50.101575" lon="7.274155">
        <ele>188.402828</ele>
        <time>2025-05-03T21:39:14.991Z</time>
      </trkpt>
      <trkpt lat="50.101371" lon="7.274089">
        <ele>190.246218</ele>
        <time>2025-05-03T21:39:40.058Z</time>
      </trkpt>
      <trkpt lat="50.101221" lon="7.274006">
        <ele>191.654490</ele>
        <time>2025-05-03T21:39:59.785Z</time>
      </trkpt>
      <trkpt lat="50.101112" lon="7.273900">
        <ele>192.791135</ele>
        <time>2025-05-03T21:40:16.154Z</time>
      </trkpt>
      <trkpt lat="50.100930" lon="7.273831">
        <ele>194.448350</ele>
        <time>2025-05-03T21:40:40.497Z</time>
      </trkpt>
      <trkpt lat="50.100730" lon="7.273617">
        <ele>196.594583</ele>
        <time>2025-05-03T21:41:13.731Z</time>
      </trkpt>
      <trkpt lat="50.100208" lon="7.273273">
        <ele>201.706272</ele>
        <time>2025-05-03T21:42:43.162Z</time>
      </trkpt>
      <trkpt lat="50.099897" lon="7.272929">
        <ele>205.709466</ele>
        <time>2025-05-03T21:43:46.768Z</time>
      </trkpt>
      <trkpt lat="50.099804" lon="7.272882">
        <ele>206.735802</ele>
        <time>2025-05-03T21:44:02.981Z</time>
      </trkpt>
      <trkpt lat="50.099785" lon="7.272848">
        <ele>207.039456</ele>
        <time>2025-05-03T21:44:07.508Z</time>
      </trkpt>
      <trkpt lat="50.099738" lon="7.272762">
        <ele>207.800268</ele>
        <time>2025-05-03T21:44:18.879Z</time>
      </trkpt>
      <trkpt lat="50.099302" lon="7.272717">
        <ele>212.387429</ele>
        <time>2025-05-03T21:45:23.216Z</time>
      </trkpt>
      <trkpt lat="50.099300" lon="7.272607">
        <ele>213.128473</ele>
        <time>2025-05-03T21:45:36.517Z</time>
      </trkpt>
      <trkpt lat="50.099411" lon="7.272380">
        <ele>215.050604</ele>
        <time>2025-05-03T21:46:09.530Z</time>
      </trkpt>
      <trkpt lat="50.099406" lon="7.272074">
        <ele>217.111889</ele>
        <time>2025-05-03T21:46:43.464Z</time>
      </trkpt>
      <trkpt lat="50.099332" lon="7.271705">
        <ele>219.715357</ele>
        <time>2025-05-03T21:47:23.230Z</time>
      </trkpt>
      <trkpt lat="50.098882" lon="7.270760">
        <ele>225.284893</ele>
        <time>2025-05-03T21:49:05.439Z</time>
      </trkpt>
      <trkpt lat="50.098542" lon="7.270240">
        <ele>228.749729</ele>
        <time>2025-05-03T21:50:22.561Z</time>
      </trkpt>
      <trkpt lat="50.098504" lon="7.270137">
        <ele>229.304184</ele>
        <time>2025-05-03T21:50:36.463Z</time>
      </trkpt>
      <trkpt lat="50.098425" lon="7.270055">
        <ele>229.994598</ele>
        <time>2025-05-03T21:50:55.363Z</time>
      </trkpt>
      <trkpt lat="50.098329" lon="7.270020">
        <ele>230.711789</ele>
        <time>2025-05-03T21:51:14.389Z</time>
      </trkpt>
      <trkpt lat="50.098302" lon="7.270087">
        <ele>231.081010</ele>
        <time>2025-05-03T21:51:24.878Z</time>
      </trkpt>
      <trkpt lat="50.098260" lon="7.270069">
        <ele>231.397872</ele>
        <time>2025-05-03T21:51:32.962Z</time>
      </trkpt>
      <trkpt lat="50.098243" lon="7.270121">
        <ele>231.670218</ele>
        <time>2025-05-03T21:51:40.449Z</time>
      </trkpt>
      <trkpt lat="50.098300" lon="7.270252">
        <ele>232.408871</ele>
        <time>2025-05-03T21:52:01.162Z</time>
      </trkpt>
      <trkpt lat="50.098240" lon="7.270257">
        <ele>232.845961</ele>
        <time>2025-05-03T21:52:13.552Z</time>
      </trkpt>
      <trkpt lat="50.098312" lon="7.270408">
        <ele>234.688444</ele>
        <time>2025-05-03T21:52:32.875Z</time>
      </trkpt>
      <trkpt lat="50.098213" lon="7.270683">
        <ele>238.273594</ele>
        <time>2025-05-03T21:53:08.089Z</time>
      </trkpt>
      <trkpt lat="50.098134" lon="7.270660">
        <ele>239.697931</ele>
        <time>2025-05-03T21:53:22.630Z</time>
      </trkpt>
      <trkpt lat="50.098050" lon="7.270752">
        <ele>241.517370</ele>
        <time>2025-05-03T21:53:42.953Z</time>
      </trkpt>
      <trkpt lat="50.097973" lon="7.270794">
        <ele>242.963178</ele>
        <time>2025-05-03T21:53:59.089Z</time>
      </trkpt>
      <trkpt lat="50.097934" lon="7.270916">
        <ele>244.512881</ele>
        <time>2025-05-03T21:54:18.241Z</time>
      </trkpt>
      <trkpt lat="50.097951" lon="7.271146">
        <ele>247.145051</ele>
        <time>2025-05-03T21:54:53.009Z</time>
      </trkpt>
      <trkpt lat="50.098057" lon="7.271408">
        <ele>250.666674</ele>
        <time>2025-05-03T21:55:39.535Z</time>
      </trkpt>
      <trkpt lat="50.098117" lon="7.271933">
        <ele>256.729366</ele>
        <time>2025-05-03T21:56:48.263Z</time>
      </trkpt>
      <trkpt lat="50.098023" lon="7.272097">
        <ele>259.229741</ele>
        <time>2025-05-03T21:57:11.082Z</time>
      </trkpt>
      <trkpt lat="50.097663" lon="7.272070">
        <ele>265.311643</ele>
        <time>2025-05-03T21:58:00.716Z</time>
      </trkpt>
      <trkpt lat="50.097589" lon="7.272028">
        <ele>266.086457</ele>
        <time>2025-05-03T21:58:11.229Z</time>
      </trkpt>
      <trkpt lat="50.097527" lon="7.271922">
        <ele>266.991806</ele>
        <time>2025-05-03T21:58:24.589Z</time>
      </trkpt>
      <trkpt lat="50.097622" lon="7.271846">
        <ele>268.042370</ele>
        <time>2025-05-03T21:58:39.047Z</time>
      </trkpt>
      <trkpt lat="50.097717" lon="7.271666">
        <ele>269.513488</ele>
        <time>2025-05-03T21:59:00.947Z</time>
      </trkpt>
      <trkpt lat="50.097736" lon="7.271533">
        <ele>270.373454</ele>
        <time>2025-05-03T21:59:14.143Z</time>
      </trkpt>
      <trkpt lat="50.097725" lon="7.271421">
        <ele>271.088557</ele>
        <time>2025-05-03T21:59:24.531Z</time>
      </trkpt>
      <trkpt lat="50.097678" lon="7.271325">
        <ele>271.850742</ele>
        <time>2025-05-03T21:59:36.147Z</time>
      </trkpt>
      <trkpt lat="50.097600" lon="7.271249">
        <ele>272.755727</ele>
        <time>2025-05-03T21:59:49.511Z</time>
      </trkpt>
      <trkpt lat="50.097494" lon="7.271203">
        <ele>273.838280</ele>
        <time>2025-05-03T22:00:05.126Z</time>
      </trkpt>
      <trkpt lat="50.097418" lon="7.271212">
        <ele>274.588172</ele>
        <time>2025-05-03T22:00:16.706Z</time>
      </trkpt>
      <trkpt lat="50.096846" lon="7.271292">
        <ele>280.238487</ele>
        <time>2025-05-03T22:01:30.425Z</time>
      </trkpt>
      <trkpt lat="50.096685" lon="7.271266">
        <ele>281.830987</ele>
        <time>2025-05-03T22:01:50.659Z</time>
      </trkpt>
      <trkpt lat="50.096320" lon="7.271074">
        <ele>283.194055</ele>
        <time>2025-05-03T22:02:34.554Z</time>
      </trkpt>
      <trkpt lat="50.096065" lon="7.270859">
        <ele>283.734839</ele>
        <time>2025-05-03T22:03:05.129Z</time>
      </trkpt>
      <trkpt lat="50.095870" lon="7.270564">
        <ele>284.241714</ele>
        <time>2025-05-03T22:03:34.173Z</time>
      </trkpt>
      <trkpt lat="50.095779" lon="7.270334">
        <ele>284.565076</ele>
        <time>2025-05-03T22:03:51.931Z</time>
      </trkpt>
      <trkpt lat="50.095781" lon="7.270177">
        <ele>284.752984</ele>
        <time>2025-05-03T22:04:02.932Z</time>
      </trkpt>
      <trkpt lat="50.095817" lon="7.270057">
        <ele>284.911507</ele>
        <time>2025-05-03T22:04:11.994Z</time>
      </trkpt>
      <trkpt lat="50.095781" lon="7.270177">
        <ele>285.070029</ele>
        <time>2025-05-03T22:04:21.987Z</time>
      </trkpt>
      <trkpt lat="50.095763" lon="7.270095">
        <ele>285.173738</ele>
        <time>2025-05-03T22:04:28.224Z</time>
      </trkpt>
      <trkpt lat="50.095630" lon="7.270019">
        <ele>285.437974</ele>
        <time>2025-05-03T22:04:42.672Z</time>
      </trkpt>
      <trkpt lat="50.095464" lon="7.269983">
        <ele>285.750604</ele>
        <time>2025-05-03T22:04:59.864Z</time>
      </trkpt>
      <trkpt lat="50.095431" lon="7.270056">
        <ele>285.857469</ele>
        <time>2025-05-03T22:05:08.508Z</time>
      </trkpt>
      <trkpt lat="50.095316" lon="7.270145">
        <ele>286.068805</ele>
        <time>2025-05-03T22:05:27.293Z</time>
      </trkpt>
      <trkpt lat="50.095130" lon="7.270135">
        <ele>286.331393</ele>
        <time>2025-05-03T22:05:53.275Z</time>
      </trkpt>
      <trkpt lat="50.095017" lon="7.270333">
        <ele>286.571264</ele>
        <time>2025-05-03T22:06:18.261Z</time>
      </trkpt>
      <trkpt lat="50.094927" lon="7.270424">
        <ele>286.722621</ele>
        <time>2025-05-03T22:06:33.133Z</time>
      </trkpt>
      <trkpt lat="50.094704" lon="7.270548">
        <ele>287.056678</ele>
        <time>2025-05-03T22:07:10.074Z</time>
      </trkpt>
      <trkpt lat="50.094428" lon="7.270601">
        <ele>287.449037</ele>
        <time>2025-05-03T22:07:53.286Z</time>
      </trkpt>
      <trkpt lat="50.094339" lon="7.270494">
        <ele>287.607620</ele>
        <time>2025-05-03T22:08:09.572Z</time>
      </trkpt>
      <trkpt lat="50.094211" lon="7.270585">
        <ele>287.806116</ele>
        <time>2025-05-03T22:08:29.866Z</time>
      </trkpt>
      <trkpt lat="50.094327" lon="7.270712">
        <ele>288.006119</ele>
        <time>2025-05-03T22:08:49.759Z</time>
      </trkpt>
      <trkpt lat="50.094290" lon="7.270762">
        <ele>288.075210</ele>
        <time>2025-05-03T22:08:55.131Z</time>
      </trkpt>
      <trkpt lat="50.094224" lon="7.270746">
        <ele>288.169450</ele>
        <time>2025-05-03T22:09:02.021Z</time>
      </trkpt>
      <trkpt lat="50.094105" lon="7.270633">
        <ele>288.366052</ele>
        <time>2025-05-03T22:09:16.032Z</time>
      </trkpt>
      <trkpt lat="50.093897" lon="7.270624">
        <ele>288.593592</ele>
        <time>2025-05-03T22:09:37.263Z</time>
      </trkpt>
      <trkpt lat="50.093731" lon="7.270473">
        <ele>288.737311</ele>
        <time>2025-05-03T22:09:56.523Z</time>
      </trkpt>
      <trkpt lat="50.093674" lon="7.270523">
        <ele>288.786220</ele>
        <time>2025-05-03T22:10:03.141Z</time>
      </trkpt>
      <trkpt lat="50.093674" lon="7.270523">
        <ele>288.786220</ele>
        <time>2025-05-03T22:10:03.190Z</time>
      </trkpt>
      <trkpt lat="50.093643" lon="7.270628">
        <ele>288.841669</ele>
        <time>2025-05-03T22:10:10.630Z</time>
      </trkpt>
      <trkpt lat="50.093671" lon="7.270767">
        <ele>288.911560</ele>
        <time>2025-05-03T22:10:20.652Z</time>
      </trkpt>
      <trkpt lat="50.093800" lon="7.270867">
        <ele>289.019292</ele>
        <time>2025-05-03T22:10:36.342Z</time>
      </trkpt>
      <trkpt lat="50.093717" lon="7.271088">
        <ele>289.142141</ele>
        <time>2025-05-03T22:10:53.080Z</time>
      </trkpt>
      <trkpt lat="50.093677" lon="7.271394">
        <ele>289.291952</ele>
        <time>2025-05-03T22:11:13.341Z</time>
      </trkpt>
      <trkpt lat="50.093616" lon="7.271512">
        <ele>289.364650</ele>
        <time>2025-05-03T22:11:23.724Z</time>
      </trkpt>
      <trkpt lat="50.093539" lon="7.271564">
        <ele>289.427400</ele>
        <time>2025-05-03T22:11:32.899Z</time>
      </trkpt>
      <trkpt lat="50.093414" lon="7.271591">
        <ele>289.521764</ele>
        <time>2025-05-03T22:11:46.764Z</time>
      </trkpt>
      <trkpt lat="50.093244" lon="7.271535">
        <ele>289.651693</ele>
        <time>2025-05-03T22:12:05.519Z</time>
      </trkpt>
      <trkpt lat="50.093172" lon="7.271602">
        <ele>289.714396</ele>
        <time>2025-05-03T22:12:14.446Z</time>
      </trkpt>
      <trkpt lat="50.093106" lon="7.271968">
        <ele>289.742673</ele>
        <time>2025-05-03T22:12:39.528Z</time>
      </trkpt>
      <trkpt lat="50.093010" lon="7.272125">
        <ele>289.356222</ele>
        <time>2025-05-03T22:12:53.441Z</time>
      </trkpt>
      <trkpt lat="50.092680" lon="7.272849">
        <ele>287.773760</ele>
        <time>2025-05-03T22:13:53.019Z</time>
      </trkpt>
      <trkpt lat="50.092517" lon="7.273107">
        <ele>287.128566</ele>
        <time>2025-05-03T22:14:18.426Z</time>
      </trkpt>
      <trkpt lat="50.092470" lon="7.273118">
        <ele>286.996567</ele>
        <time>2025-05-03T22:14:23.558Z</time>
      </trkpt>
      <trkpt lat="50.092433" lon="7.273011">
        <ele>286.779982</ele>
        <time>2025-05-03T22:14:32.452Z</time>
      </trkpt>
      <trkpt lat="50.092466" lon="7.272954">
        <ele>286.643178</ele>
        <time>2025-05-03T22:14:37.844Z</time>
      </trkpt>
      <trkpt lat="50.092363" lon="7.272994">
        <ele>286.348365</ele>
        <time>2025-05-03T22:14:49.801Z</time>
      </trkpt>
      <trkpt lat="50.092250" lon="7.272983">
        <ele>286.033912</ele>
        <time>2025-05-03T22:15:02.622Z</time>
      </trkpt>
      <trkpt lat="50.092305" lon="7.272747">
        <ele>285.586517</ele>
        <time>2025-05-03T22:15:20.361Z</time>
      </trkpt>
      <trkpt lat="50.092301" lon="7.272661">
        <ele>285.432878</ele>
        <time>2025-05-03T22:15:26.284Z</time>
      </trkpt>
      <trkpt lat="50.092226" lon="7.272666">
        <ele>285.224386</ele>
        <time>2025-05-03T22:15:34.487Z</time>
      </trkpt>
      <trkpt lat="50.092111" lon="7.272768">
        <ele>284.882668</ele>
        <time>2025-05-03T22:15:48.630Z</time>
      </trkpt>
      <trkpt lat="50.092035" lon="7.272722">
        <ele>285.154239</ele>
        <time>2025-05-03T22:15:57.413Z</time>
      </trkpt>
      <trkpt lat="50.091939" lon="7.272603">
        <ele>285.562805</ele>
        <time>2025-05-03T22:16:10.390Z</time>
      </trkpt>
      <trkpt lat="50.091926" lon="7.272576">
        <ele>285.634947</ele>
        <time>2025-05-03T22:16:12.723Z</time>
      </trkpt>
      <trkpt lat="50.091944" lon="7.272509">
        <ele>285.790174</ele>
        <time>2025-05-03T22:16:17.482Z</time>
      </trkpt>
      <trkpt lat="50.091677" lon="7.272331">
        <ele>286.757479</ele>
        <time>2025-05-03T22:16:46.901Z</time>
      </trkpt>
      <trkpt lat="50.091679" lon="7.272243">
        <ele>286.945656</ele>
        <time>2025-05-03T22:16:52.634Z</time>
      </trkpt>
      <trkpt lat="50.091676" lon="7.272221">
        <ele>286.993721</ele>
        <time>2025-05-03T22:16:54.143Z</time>
      </trkpt>
      <trkpt lat="50.091581" lon="7.272257">
        <ele>287.319382</ele>
        <time>2025-05-03T22:17:04.721Z</time>
      </trkpt>
      <trkpt lat="50.091459" lon="7.272248">
        <ele>287.726217</ele>
        <time>2025-05-03T22:17:17.907Z</time>
      </trkpt>
      <trkpt lat="50.091358" lon="7.272192">
        <ele>288.083297</ele>
        <time>2025-05-03T22:17:29.601Z</time>
      </trkpt>
      <trkpt lat="50.091008" lon="7.272029">
        <ele>289.300069</ele>
        <time>2025-05-03T22:18:11.871Z</time>
      </trkpt>
      <trkpt lat="50.090787" lon="7.271839">
        <ele>290.140773</ele>
        <time>2025-05-03T22:18:44.033Z</time>
      </trkpt>
      <trkpt lat="50.090702" lon="7.271809">
        <ele>290.431074</ele>
        <time>2025-05-03T22:18:55.846Z</time>
      </trkpt>
      <trkpt lat="50.090338" lon="7.271415">
        <ele>295.024354</ele>
        <time>2025-05-03T22:19:58.489Z</time>
      </trkpt>
      <trkpt lat="50.089989" lon="7.271448">
        <ele>299.655123</ele>
        <time>2025-05-03T22:20:48.393Z</time>
      </trkpt>
      <trkpt lat="50.089652" lon="7.271332">
        <ele>304.226008</ele>
        <time>2025-05-03T22:21:41.837Z</time>
      </trkpt>
      <trkpt lat="50.089507" lon="7.271349">
        <ele>306.151862</ele>
        <time>2025-05-03T22:22:05.255Z</time>
      </trkpt>
      <trkpt lat="50.089291" lon="7.271475">
        <ele>309.206430</ele>
        <time>2025-05-03T22:22:44.082Z</time>
      </trkpt>
      <trkpt lat="50.088981" lon="7.271837">
        <ele>314.336681</ele>
        <time>2025-05-03T22:23:48.908Z</time>
      </trkpt>
      <trkpt lat="50.088879" lon="7.272014">
        <ele>316.271060</ele>
        <time>2025-05-03T22:24:14.575Z</time>
      </trkpt>
      <trkpt lat="50.088450" lon="7.272445">
        <ele>322.679007</ele>
        <time>2025-05-03T22:25:35.621Z</time>
      </trkpt>
      <trkpt lat="50.088404" lon="7.272545">
        <ele>323.670159</ele>
        <time>2025-05-03T22:25:47.121Z</time>
      </trkpt>
      <trkpt lat="50.088269" lon="7.272691">
        <ele>325.733105</ele>
        <time>2025-05-03T22:26:11.727Z</time>
      </trkpt>
      <trkpt lat="50.088116" lon="7.272937">
        <ele>328.492888</ele>
        <time>2025-05-03T22:26:44.649Z</time>
      </trkpt>
      <trkpt lat="50.088072" lon="7.272926">
        <ele>329.052357</ele>
        <time>2025-05-03T22:26:51.104Z</time>
      </trkpt>
      <trkpt lat="50.088058" lon="7.272973">
        <ele>329.469763</ele>
        <time>2025-05-03T22:26:55.948Z</time>
      </trkpt>
      <trkpt lat="50.088009" lon="7.273004">
        <ele>330.133694</ele>
        <time>2025-05-03T22:27:03.653Z</time>
      </trkpt>
      <trkpt lat="50.087950" lon="7.273014">
        <ele>330.878789</ele>
        <time>2025-05-03T22:27:11.697Z</time>
      </trkpt>
      <trkpt lat="50.087983" lon="7.272934">
        <ele>331.644899</ele>
        <time>2025-05-03T22:27:19.916Z</time>
      </trkpt>
      <trkpt lat="50.087972" lon="7.272900">
        <ele>331.951626</ele>
        <time>2025-05-03T22:27:23.380Z</time>
      </trkpt>
      <trkpt lat="50.087647" lon="7.272842">
        <ele>336.058568</ele>
        <time>2025-05-03T22:28:07.042Z</time>
      </trkpt>
      <trkpt lat="50.087452" lon="7.272662">
        <ele>338.420712</ele>
        <time>2025-05-03T22:28:36.616Z</time>
      </trkpt>
      <trkpt lat="50.087353" lon="7.272528">
        <ele>339.582125</ele>
        <time>2025-05-03T22:28:54.086Z</time>
      </trkpt>
      <trkpt lat="50.087246" lon="7.272468">
        <ele>340.589351</ele>
        <time>2025-05-03T22:29:09.140Z</time>
      </trkpt>
      <trkpt lat="50.087155" lon="7.272372">
        <ele>341.562667</ele>
        <time>2025-05-03T22:29:23.621Z</time>
      </trkpt>
      <trkpt lat="50.086845" lon="7.272303">
        <ele>344.336347</ele>
        <time>2025-05-03T22:30:04.541Z</time>
      </trkpt>
      <trkpt lat="50.086512" lon="7.272290">
        <ele>347.286814</ele>
        <time>2025-05-03T22:30:47.652Z</time>
      </trkpt>
      <trkpt lat="50.086532" lon="7.272209">
        <ele>347.780065</ele>
        <time>2025-05-03T22:30:54.799Z</time>
      </trkpt>
      <trkpt lat="50.086518" lon="7.272141">
        <ele>348.185932</ele>
        <time>2025-05-03T22:31:00.647Z</time>
      </trkpt>
      <trkpt lat="50.086492" lon="7.272037">
        <ele>348.820268</ele>
        <time>2025-05-03T22:31:09.903Z</time>
      </trkpt>
      <trkpt lat="50.085974" lon="7.271941">
        <ele>353.338467</ele>
        <time>2025-05-03T22:32:16.232Z</time>
      </trkpt>
      <trkpt lat="50.085729" lon="7.271801">
        <ele>354.689304</ele>
        <time>2025-05-03T22:32:49.827Z</time>
      </trkpt>
      <trkpt lat="50.085665" lon="7.271745">
        <ele>355.069252</ele>
        <time>2025-05-03T22:32:59.246Z</time>
      </trkpt>
      <trkpt lat="50.085651" lon="7.271695">
        <ele>355.250454</ele>
        <time>2025-05-03T22:33:03.697Z</time>
      </trkpt>
      <trkpt lat="50.085692" lon="7.271630">
        <ele>355.553207</ele>
        <time>2025-05-03T22:33:11.054Z</time>
      </trkpt>
      <trkpt lat="50.085763" lon="7.271584">
        <ele>355.951241</ele>
        <time>2025-05-03T22:33:20.890Z</time>
      </trkpt>
      <trkpt lat="50.086117" lon="7.271535">
        <ele>357.790983</ele>
        <time>2025-05-03T22:34:03.488Z</time>
      </trkpt>
      <trkpt lat="50.086191" lon="7.271442">
        <ele>358.283083</ele>
        <time>2025-05-03T22:34:14.698Z</time>
      </trkpt>
      <trkpt lat="50.086222" lon="7.271348">
        <ele>358.634131</ele>
        <time>2025-05-03T22:34:22.461Z</time>
      </trkpt>
      <trkpt lat="50.086213" lon="7.270999">
        <ele>359.794272</ele>
        <time>2025-05-03T22:34:48.130Z</time>
      </trkpt>
      <trkpt lat="50.086212" lon="7.270936">
        <ele>360.003590</ele>
        <time>2025-05-03T22:34:52.661Z</time>
      </trkpt>
      <trkpt lat="50.086171" lon="7.270766">
        <ele>360.606818</ele>
        <time>2025-05-03T22:35:05.736Z</time>
      </trkpt>
      <trkpt lat="50.086058" lon="7.270880">
        <ele>361.303636</ele>
        <time>2025-05-03T22:35:20.679Z</time>
      </trkpt>
      <trkpt lat="50.085536" lon="7.271262">
        <ele>362.786892</ele>
        <time>2025-05-03T22:36:22.592Z</time>
      </trkpt>
      <trkpt lat="50.085387" lon="7.271305">
        <ele>362.910661</ele>
        <time>2025-05-03T22:36:38.483Z</time>
      </trkpt>
      <trkpt lat="50.085030" lon="7.271191">
        <ele>363.208307</ele>
        <time>2025-05-03T22:37:15.202Z</time>
      </trkpt>
      <trkpt lat="50.084615" lon="7.271247">
        <ele>363.548536</ele>
        <time>2025-05-03T22:37:56.941Z</time>
      </trkpt>
      <trkpt lat="50.084142" lon="7.271232">
        <ele>363.934950</ele>
        <time>2025-05-03T22:38:44.381Z</time>
      </trkpt>
      <trkpt lat="50.084035" lon="7.271270">
        <ele>364.024922</ele>
        <time>2025-05-03T22:38:55.288Z</time>
      </trkpt>
      <trkpt lat="50.083970" lon="7.271343">
        <ele>364.090801</ele>
        <time>2025-05-03T22:39:03.396Z</time>
      </trkpt>
      <trkpt lat="50.083923" lon="7.271448">
        <ele>364.158349</ele>
        <time>2025-05-03T22:39:11.801Z</time>
      </trkpt>
      <trkpt lat="50.083903" lon="7.271553">
        <ele>364.216139</ele>
        <time>2025-05-03T22:39:19.004Z</time>
      </trkpt>
      <trkpt lat="50.083916" lon="7.271662">
        <ele>364.274634</ele>
        <time>2025-05-03T22:39:26.352Z</time>
      </trkpt>
      <trkpt lat="50.084109" lon="7.272216">
        <ele>364.607237</ele>
        <time>2025-05-03T22:40:09.111Z</time>
      </trkpt>
      <trkpt lat="50.084100" lon="7.272364">
        <ele>364.685675</ele>
        <time>2025-05-03T22:40:19.345Z</time>
      </trkpt>
      <trkpt lat="50.084017" lon="7.272718">
        <ele>364.884530</ele>
        <time>2025-05-03T22:40:45.104Z</time>
      </trkpt>
      <trkpt lat="50.083943" lon="7.273006">
        <ele>365.048215</ele>
        <time>2025-05-03T22:41:06.124Z</time>
      </trkpt>
      <trkpt lat="50.083793" lon="7.273368">
        <ele>365.275576</ele>
        <time>2025-05-03T22:41:34.488Z</time>
      </trkpt>
      <trkpt lat="50.083539" lon="7.273695">
        <ele>365.379087</ele>
        <time>2025-05-03T22:42:07.446Z</time>
      </trkpt>
      <trkpt lat="50.083472" lon="7.273924">
        <ele>365.272662</ele>
        <time>2025-05-03T22:42:23.681Z</time>
      </trkpt>
      <trkpt lat="50.083509" lon="7.274166">
        <ele>365.167466</ele>
        <time>2025-05-03T22:42:39.758Z</time>
      </trkpt>
      <trkpt lat="50.083574" lon="7.274278">
        <ele>365.103609</ele>
        <time>2025-05-03T22:42:49.584Z</time>
      </trkpt>
      <trkpt lat="50.083659" lon="7.274292">
        <ele>365.047282</ele>
        <time>2025-05-03T22:42:58.273Z</time>
      </trkpt>
      <trkpt lat="50.084154" lon="7.274116">
        <ele>364.712699</ele>
        <time>2025-05-03T22:43:51.491Z</time>
      </trkpt>
      <trkpt lat="50.084456" lon="7.273978">
        <ele>364.505305</ele>
        <time>2025-05-03T22:44:24.309Z</time>
      </trkpt>
      <trkpt lat="50.084601" lon="7.273797">
        <ele>364.382879</ele>
        <time>2025-05-03T22:44:43.309Z</time>
      </trkpt>
      <trkpt lat="50.084691" lon="7.273411">
        <ele>364.542161</ele>
        <time>2025-05-03T22:45:10.019Z</time>
      </trkpt>
      <trkpt lat="50.084770" lon="7.273212">
        <ele>365.001148</ele>
        <time>2025-05-03T22:45:25.846Z</time>
      </trkpt>
      <trkpt lat="50.084837" lon="7.273225">
        <ele>365.207537</ele>
        <time>2025-05-03T22:45:33.159Z</time>
      </trkpt>
      <trkpt lat="50.084842" lon="7.274503">
        <ele>367.714278</ele>
        <time>2025-05-03T22:47:05.865Z</time>
      </trkpt>
      <trkpt lat="50.085862" lon="7.275323">
        <ele>370.528524</ele>
        <time>2025-05-03T22:49:18.063Z</time>
      </trkpt>
      <trkpt lat="50.085940" lon="7.275468">
        <ele>370.722754</ele>
        <time>2025-05-03T22:49:30.929Z</time>
      </trkpt>
      <trkpt lat="50.086338" lon="7.278215">
        <ele>372.527176</ele>
        <time>2025-05-03T22:52:34.308Z</time>
      </trkpt>
      <trkpt lat="50.086826" lon="7.281211">
        <ele>372.297529</ele>
        <time>2025-05-03T22:55:54.924Z</time>
      </trkpt>
      <trkpt lat="50.086852" lon="7.281570">
        <ele>372.297529</ele>
        <time>2025-05-03T22:56:18.549Z</time>
      </trkpt>
      <trkpt lat="50.086789" lon="7.281562">
        <ele>372.297529</ele>
        <time>2025-05-03T22:56:24.937Z</time>
      </trkpt>
    </trkseg>
  </trk>
</gpx>